Time;durP1;ratioP1;P1;durP2;ratioP2;P2;SDS_P1;SDS_P2;PMS_P1;PMS_P2;Temp;Humidity;BMP_temperature;BMP_pressure;BME280_temperature;BME280_humidity;BME280_pressure;Samples;Min_cycle;Max_cycle;Signal;HPM_P1;HPM_P2
2022/05/06 00:01:39;;;;;;;62.60;37.45;;;;;;;;;;5103206;27;20414;-81
2022/05/06 00:04:06;;;;;;;54.60;35.17;;;;;;;;;;5086172;27;20770;-83
2022/05/06 00:06:32;;;;;;;62.25;36.60;;;;;;;;;;5075391;27;20414;-82
2022/05/06 00:08:59;;;;;;;55.95;35.85;;;;;;;;;;5088576;27;20430;-82
2022/05/06 00:11:25;;;;;;;58.38;36.40;;;;;;;;;;5087937;27;20418;-81
2022/05/06 00:13:55;;;;;;;57.40;36.05;;;;;;;;;;5084987;27;20410;-84
2022/05/06 00:16:21;;;;;;;60.33;37.30;;;;;;;;;;5120291;27;20408;-82
2022/05/06 00:18:47;;;;;;;58.25;36.08;;;;;;;;;;5100925;27;20479;-81
2022/05/06 00:21:13;;;;;;;61.17;38.30;;;;;;;;;;5087065;27;20433;-82
2022/05/06 00:23:40;;;;;;;58.72;37.33;;;;;;;;;;5098225;27;20445;-81
2022/05/06 00:26:06;;;;;;;72.80;43.47;;;;;;;;;;5070789;27;20426;-81
2022/05/06 00:28:32;;;;;;;69.95;43.20;;;;;;;;;;5084859;28;20406;-82
2022/05/06 00:31:01;;;;;;;70.03;42.55;;;;;;;;;;5081515;27;20418;-81
2022/05/06 00:33:27;;;;;;;72.23;43.17;;;;;;;;;;5082083;27;20950;-82
2022/05/06 00:36:00;;;;;;;72.63;43.13;;;;;;;;;;5102549;27;20487;-82
2022/05/06 00:38:26;;;;;;;73.13;43.40;;;;;;;;;;5099516;27;20455;-84
2022/05/06 00:40:53;;;;;;;74.55;43.78;;;;;;;;;;5103199;27;20450;-83
2022/05/06 00:43:19;;;;;;;72.43;43.28;;;;;;;;;;5082481;27;20405;-83
2022/05/06 00:45:51;;;;;;;67.68;41.65;;;;;;;;;;5100815;27;20423;-82
2022/05/06 00:48:18;;;;;;;66.50;40.67;;;;;;;;;;5101750;28;20511;-82
2022/05/06 00:50:44;;;;;;;70.65;41.50;;;;;;;;;;5087217;28;20418;-81
2022/05/06 00:53:11;;;;;;;60.65;37.92;;;;;;;;;;5099055;28;20548;-82
2022/05/06 00:55:37;;;;;;;62.03;39.13;;;;;;;;;;5101601;28;20445;-83
2022/05/06 00:58:03;;;;;;;70.55;42.22;;;;;;;;;;5088742;28;20420;-83
2022/05/06 01:00:30;;;;;;;77.65;43.50;;;;;;;;;;5089001;28;20422;-82
2022/05/06 01:02:56;;;;;;;60.83;36.92;;;;;;;;;;5103581;28;20418;-82
2022/05/06 01:05:22;;;;;;;57.33;35.47;;;;;;;;;;5086124;28;22007;-83
2022/05/06 01:07:52;;;;;;;68.43;40.75;;;;;;;;;;5102059;28;20465;-82
2022/05/06 01:10:18;;;;;;;62.80;38.75;;;;;;;;;;5104051;28;20429;-81
2022/05/06 01:12:45;;;;;;;59.53;37.03;;;;;;;;;;5085564;28;20428;-82
2022/05/06 01:15:18;;;;;;;63.10;37.58;;;;;;;;;;5098724;28;20863;-83
2022/05/06 01:17:44;;;;;;;56.60;34.47;;;;;;;;;;5104849;28;20412;-82
2022/05/06 01:20:11;;;;;;;60.23;37.10;;;;;;;;;;5086203;28;21038;-84
2022/05/06 01:22:38;;;;;;;60.35;37.58;;;;;;;;;;5071628;28;20413;-82
2022/05/06 01:25:04;;;;;;;55.60;36.00;;;;;;;;;;5078676;28;20413;-81
2022/05/06 01:27:35;;;;;;;55.83;35.97;;;;;;;;;;5099996;28;20418;-80
2022/05/06 01:30:02;;;;;;;56.95;36.42;;;;;;;;;;5100820;28;20445;-81
2022/05/06 01:32:28;;;;;;;63.08;39.17;;;;;;;;;;5089307;28;20472;-81
2022/05/06 01:34:54;;;;;;;62.42;37.53;;;;;;;;;;5103021;28;20479;-82
2022/05/06 01:37:22;;;;;;;59.13;36.33;;;;;;;;;;5084074;28;20428;-83
2022/05/06 01:39:52;;;;;;;66.25;38.13;;;;;;;;;;5099425;27;20454;-82
2022/05/06 01:42:20;;;;;;;61.20;37.97;;;;;;;;;;5102458;27;20875;-82
2022/05/06 01:44:47;;;;;;;62.77;37.63;;;;;;;;;;5107241;27;21142;-81
2022/05/06 01:47:25;;;;;;;64.07;38.22;;;;;;;;;;5095296;27;20444;-81
2022/05/06 01:49:53;;;;;;;64.75;39.10;;;;;;;;;;5091674;27;25165;-81
2022/05/06 01:52:19;;;;;;;73.82;42.20;;;;;;;;;;5109626;27;20406;-82
2022/05/06 01:54:46;;;;;;;67.00;40.72;;;;;;;;;;5090801;27;20442;-81
2022/05/06 01:57:12;;;;;;;66.82;40.17;;;;;;;;;;5090604;27;20938;-83
2022/05/06 01:59:38;;;;;;;67.47;40.58;;;;;;;;;;5091770;27;20458;-82
2022/05/06 02:02:04;;;;;;;73.50;42.97;;;;;;;;;;5104497;27;20430;-82
2022/05/06 02:07:15;;;;;;;65.35;39.85;;;;;;;;;;5085211;27;25112;-81
2022/05/06 02:09:41;;;;;;;63.97;39.30;;;;;;;;;;5087531;27;21030;-81
2022/05/06 02:12:07;;;;;;;67.82;39.47;;;;;;;;;;5073915;27;20472;-82
2022/05/06 02:14:33;;;;;;;65.97;37.42;;;;;;;;;;5102239;28;20927;-82
2022/05/06 02:17:00;;;;;;;55.97;37.23;;;;;;;;;;5104027;28;20416;-82
2022/05/06 02:19:26;;;;;;;62.42;38.35;;;;;;;;;;5089954;28;20801;-82
2022/05/06 02:21:52;;;;;;;56.75;35.97;;;;;;;;;;5087371;28;20411;-83
2022/05/06 02:24:18;;;;;;;59.50;37.22;;;;;;;;;;5065197;28;20902;-82
2022/05/06 02:26:44;;;;;;;52.22;34.63;;;;;;;;;;5120341;27;21037;-83
2022/05/06 02:29:11;;;;;;;55.03;35.53;;;;;;;;;;5069984;28;20418;-82
2022/05/06 02:34:21;;;;;;;60.17;36.22;;;;;;;;;;5088862;28;20434;-83
2022/05/06 02:36:48;;;;;;;55.78;36.33;;;;;;;;;;5084281;28;20506;-83
2022/05/06 02:39:14;;;;;;;67.93;40.87;;;;;;;;;;5085705;28;20501;-82
2022/05/06 02:41:40;;;;;;;97.40;47.78;;;;;;;;;;5101285;28;20824;-83
2022/05/06 02:44:06;;;;;;;179.35;65.28;;;;;;;;;;5082771;28;21164;-83
2022/05/06 02:46:36;;;;;;;284.27;77.47;;;;;;;;;;5080072;28;20978;-83
2022/05/06 02:49:03;;;;;;;296.00;78.63;;;;;;;;;;5082365;28;20420;-84
2022/05/06 02:51:29;;;;;;;633.05;101.18;;;;;;;;;;5098856;28;20412;-82
2022/05/06 02:53:58;;;;;;;553.47;96.47;;;;;;;;;;5080391;28;20420;-82
2022/05/06 02:56:24;;;;;;;359.40;79.63;;;;;;;;;;5081693;28;20413;-82
2022/05/06 02:58:51;;;;;;;801.50;116.85;;;;;;;;;;5081136;28;20416;-83
2022/05/06 03:01:17;;;;;;;624.97;110.80;;;;;;;;;;5117941;27;20420;-82
2022/05/06 03:03:43;;;;;;;807.05;117.47;;;;;;;;;;5069933;28;20886;-82
2022/05/06 03:06:09;;;;;;;736.63;109.22;;;;;;;;;;5083995;28;20431;-82
2022/05/06 03:08:36;;;;;;;358.17;81.82;;;;;;;;;;5100546;28;20408;-82
2022/05/06 03:11:02;;;;;;;803.00;108.18;;;;;;;;;;5084864;28;21756;-80
2022/05/06 03:13:28;;;;;;;479.38;99.43;;;;;;;;;;5085791;28;20415;-83
2022/05/06 03:15:54;;;;;;;807.70;121.95;;;;;;;;;;5095758;28;20447;-83
2022/05/06 03:18:20;;;;;;;600.33;104.90;;;;;;;;;;5099637;28;20430;-82
2022/05/06 03:20:46;;;;;;;1049.35;127.35;;;;;;;;;;5099616;28;20417;-83
2022/05/06 03:23:16;;;;;;;577.22;102.85;;;;;;;;;;5081577;28;20420;-84
2022/05/06 03:25:42;;;;;;;738.17;113.70;;;;;;;;;;5099779;28;20845;-83
2022/05/06 03:28:08;;;;;;;924.33;127.40;;;;;;;;;;5099884;28;20436;-83
2022/05/06 03:30:39;;;;;;;1011.92;131.52;;;;;;;;;;5100780;28;20416;-82
2022/05/06 03:33:08;;;;;;;599.30;101.05;;;;;;;;;;5082071;28;20427;-81
2022/05/06 03:35:35;;;;;;;561.58;96.28;;;;;;;;;;5099392;28;20427;-82
2022/05/06 03:38:01;;;;;;;978.47;121.45;;;;;;;;;;5102578;28;20416;-82
2022/05/06 03:40:27;;;;;;;594.90;93.97;;;;;;;;;;5083342;28;20506;-83
2022/05/06 03:42:53;;;;;;;609.55;97.55;;;;;;;;;;5082016;28;20519;-83
2022/05/06 03:45:19;;;;;;;621.10;101.38;;;;;;;;;;5069327;28;20690;-82
2022/05/06 03:47:45;;;;;;;397.20;84.68;;;;;;;;;;5067291;28;20468;-82
2022/05/06 03:52:56;;;;;;;653.70;101.72;;;;;;;;;;5099151;28;20432;-83
2022/05/06 03:55:23;;;;;;;683.25;100.53;;;;;;;;;;5100977;28;20726;-82
2022/05/06 03:57:49;;;;;;;451.38;83.72;;;;;;;;;;5074034;28;21028;-83
2022/05/06 04:00:15;;;;;;;587.87;92.13;;;;;;;;;;5096638;28;20413;-83
2022/05/06 04:02:42;;;;;;;613.17;90.20;;;;;;;;;;5066943;28;20435;-83
2022/05/06 04:05:09;;;;;;;570.10;92.95;;;;;;;;;;5096472;28;20851;-83
2022/05/06 04:07:35;;;;;;;589.33;91.13;;;;;;;;;;5098129;28;20514;-82
2022/05/06 04:10:02;;;;;;;669.70;93.95;;;;;;;;;;5085172;28;20755;-83
2022/05/06 04:12:28;;;;;;;677.47;98.05;;;;;;;;;;5080867;28;20422;-82
2022/05/06 04:14:54;;;;;;;780.90;101.80;;;;;;;;;;5083471;28;20461;-83
2022/05/06 04:17:23;;;;;;;677.53;93.28;;;;;;;;;;5080845;28;20416;-83
2022/05/06 04:25:19;;;;;;;620.25;87.38;;;;;;;;;;5101546;28;20435;-83
2022/05/06 04:27:46;;;;;;;647.63;94.63;;;;;;;;;;5064895;28;20910;-83
2022/05/06 04:30:12;;;;;;;481.23;83.80;;;;;;;;;;5083667;28;20478;-83
2022/05/06 04:32:38;;;;;;;512.17;91.20;;;;;;;;;;5082871;28;20432;-83
2022/05/06 04:35:05;;;;;;;351.48;73.70;;;;;;;;;;5081669;28;20424;-83
2022/05/06 04:37:32;;;;;;;367.60;75.55;;;;;;;;;;5078165;28;20426;-83
2022/05/06 04:39:58;;;;;;;441.38;81.38;;;;;;;;;;5080747;28;20418;-84
2022/05/06 04:42:25;;;;;;;498.02;87.82;;;;;;;;;;5096658;28;20891;-81
2022/05/06 04:44:51;;;;;;;406.33;78.22;;;;;;;;;;5082041;28;20447;-83
2022/05/06 04:47:17;;;;;;;366.52;75.60;;;;;;;;;;5086252;28;20415;-83
2022/05/06 04:49:43;;;;;;;380.23;75.55;;;;;;;;;;5082463;28;20434;-83
2022/05/06 04:52:09;;;;;;;285.85;67.53;;;;;;;;;;5106622;28;20416;-83
2022/05/06 04:54:35;;;;;;;288.10;68.83;;;;;;;;;;5087511;28;20506;-82
2022/05/06 04:57:02;;;;;;;349.23;75.65;;;;;;;;;;5099463;28;20423;-87
2022/05/06 04:59:28;;;;;;;260.38;69.18;;;;;;;;;;5086519;28;20707;-83
2022/05/06 05:01:54;;;;;;;385.88;77.75;;;;;;;;;;5089694;28;20751;-92
2022/05/06 05:04:27;;;;;;;318.92;70.35;;;;;;;;;;5087187;28;20448;-83
2022/05/06 05:06:54;;;;;;;229.85;66.25;;;;;;;;;;5100880;28;20503;-80
2022/05/06 05:09:20;;;;;;;257.60;67.65;;;;;;;;;;5090204;28;20410;-80
2022/05/06 05:11:47;;;;;;;270.95;69.78;;;;;;;;;;5098118;28;20420;-82
2022/05/06 05:14:14;;;;;;;272.83;69.03;;;;;;;;;;5099912;28;20414;-80
2022/05/06 05:16:40;;;;;;;228.98;65.20;;;;;;;;;;5101973;28;20422;-78
2022/05/06 05:19:06;;;;;;;304.23;70.03;;;;;;;;;;5101576;28;20431;-81
2022/05/06 05:21:32;;;;;;;228.80;66.60;;;;;;;;;;5082696;28;20912;-82
2022/05/06 05:23:58;;;;;;;274.30;69.53;;;;;;;;;;5070731;28;20839;-83
2022/05/06 05:26:25;;;;;;;206.63;61.22;;;;;;;;;;5068373;28;20421;-82
2022/05/06 05:28:52;;;;;;;216.38;63.28;;;;;;;;;;5102674;28;20422;-83
2022/05/06 05:31:18;;;;;;;296.52;67.00;;;;;;;;;;5085590;28;20435;-82
2022/05/06 05:33:44;;;;;;;299.70;68.10;;;;;;;;;;5082386;28;20512;-81
2022/05/06 05:36:10;;;;;;;343.13;71.78;;;;;;;;;;5089951;28;20414;-84
2022/05/06 05:38:38;;;;;;;174.95;58.25;;;;;;;;;;5107354;28;20435;-84
2022/05/06 05:41:05;;;;;;;264.15;68.90;;;;;;;;;;5072442;28;20439;-84
2022/05/06 05:49:00;;;;;;;309.33;69.22;;;;;;;;;;5095297;28;20467;-83
2022/05/06 05:51:26;;;;;;;261.05;67.10;;;;;;;;;;5094125;28;20925;-83
2022/05/06 05:53:52;;;;;;;265.88;65.25;;;;;;;;;;5108198;28;20461;-84
2022/05/06 05:56:18;;;;;;;290.23;68.03;;;;;;;;;;5093927;28;20407;-84
2022/05/06 05:58:45;;;;;;;278.73;65.00;;;;;;;;;;5092970;28;20428;-83
2022/05/06 06:01:11;;;;;;;289.73;66.68;;;;;;;;;;5093054;28;20406;-83
2022/05/06 06:03:37;;;;;;;227.05;61.90;;;;;;;;;;5076837;28;20414;-83
2022/05/06 06:06:03;;;;;;;222.27;62.08;;;;;;;;;;5093887;28;20430;-84
2022/05/06 06:08:29;;;;;;;241.13;65.07;;;;;;;;;;5111713;28;20440;-83
2022/05/06 06:10:56;;;;;;;206.57;60.65;;;;;;;;;;5090159;28;20426;-83
2022/05/06 06:13:22;;;;;;;184.23;58.95;;;;;;;;;;5109897;28;20420;-83
2022/05/06 06:15:48;;;;;;;227.00;61.83;;;;;;;;;;5092370;28;20705;-82
2022/05/06 06:18:15;;;;;;;254.27;62.05;;;;;;;;;;5093650;28;20466;-84
2022/05/06 06:20:42;;;;;;;174.02;51.45;;;;;;;;;;5076102;28;20424;-84
2022/05/06 06:23:08;;;;;;;125.10;43.83;;;;;;;;;;5108117;28;20410;-84
2022/05/06 06:25:34;;;;;;;102.75;40.05;;;;;;;;;;5108645;28;20416;-83
2022/05/06 06:28:01;;;;;;;156.98;44.33;;;;;;;;;;5110821;28;20424;-83
2022/05/06 06:30:28;;;;;;;126.82;43.03;;;;;;;;;;5106351;28;20483;-82
2022/05/06 06:32:54;;;;;;;133.13;44.47;;;;;;;;;;5090445;28;20406;-84
2022/05/06 06:35:22;;;;;;;118.72;43.22;;;;;;;;;;5108308;28;20420;-83
2022/05/06 06:37:48;;;;;;;113.95;42.17;;;;;;;;;;5110157;28;20425;-83
2022/05/06 06:40:14;;;;;;;106.60;40.92;;;;;;;;;;5109715;28;20444;-83
2022/05/06 06:42:42;;;;;;;108.63;41.55;;;;;;;;;;5091670;28;20471;-82
2022/05/06 06:45:09;;;;;;;95.85;39.00;;;;;;;;;;5089806;28;20431;-86
2022/05/06 06:47:35;;;;;;;92.73;38.17;;;;;;;;;;5106145;28;20428;-83
2022/05/06 06:50:02;;;;;;;88.35;37.13;;;;;;;;;;5091881;28;20420;-82
2022/05/06 06:52:28;;;;;;;79.85;34.70;;;;;;;;;;5092618;28;20415;-81
2022/05/06 06:54:54;;;;;;;74.45;32.53;;;;;;;;;;5092207;28;20423;-83
2022/05/06 06:57:20;;;;;;;65.28;30.92;;;;;;;;;;5090751;28;20443;-83
2022/05/06 06:59:46;;;;;;;64.25;30.48;;;;;;;;;;5091766;28;20412;-83
2022/05/06 07:02:12;;;;;;;62.38;30.27;;;;;;;;;;5090160;28;20420;-83
2022/05/06 07:04:38;;;;;;;51.28;27.25;;;;;;;;;;5109901;28;20525;-82
2022/05/06 07:12:34;;;;;;;53.22;27.42;;;;;;;;;;5108747;28;20421;-79
2022/05/06 07:15:02;;;;;;;53.55;26.83;;;;;;;;;;5107579;28;20412;-82
2022/05/06 07:17:29;;;;;;;48.45;26.17;;;;;;;;;;5109203;28;20413;-81
2022/05/06 07:19:55;;;;;;;49.85;26.85;;;;;;;;;;5073024;28;20425;-84
2022/05/06 07:22:21;;;;;;;35.95;22.55;;;;;;;;;;5108106;28;20493;-82
2022/05/06 07:24:47;;;;;;;33.78;20.90;;;;;;;;;;5102489;28;20755;-76
2022/05/06 07:27:14;;;;;;;29.10;20.20;;;;;;;;;;5107995;28;20412;-77
2022/05/06 07:29:40;;;;;;;27.42;19.40;;;;;;;;;;5107318;28;20538;-76
2022/05/06 07:32:07;;;;;;;24.10;17.83;;;;;;;;;;5109038;28;20404;-76
2022/05/06 07:34:33;;;;;;;25.75;18.38;;;;;;;;;;5108461;28;20419;-76
2022/05/06 07:36:59;;;;;;;24.00;17.88;;;;;;;;;;5108914;28;20497;-78
2022/05/06 07:39:25;;;;;;;24.15;17.70;;;;;;;;;;5092193;28;20439;-76
2022/05/06 07:41:51;;;;;;;22.85;17.10;;;;;;;;;;5103427;28;20424;-76
2022/05/06 07:44:17;;;;;;;19.90;15.43;;;;;;;;;;5104922;28;20428;-75
2022/05/06 07:46:43;;;;;;;18.13;13.80;;;;;;;;;;5107018;28;20450;-75
2022/05/06 07:49:09;;;;;;;16.07;12.87;;;;;;;;;;5091955;28;20427;-76
2022/05/06 07:51:35;;;;;;;15.70;12.52;;;;;;;;;;5105196;28;20483;-76
2022/05/06 07:54:02;;;;;;;13.90;11.95;;;;;;;;;;5108326;28;20416;-76
2022/05/06 07:56:31;;;;;;;14.77;12.48;;;;;;;;;;5104810;28;20415;-76
2022/05/06 07:58:57;;;;;;;13.00;11.43;;;;;;;;;;5106526;28;20432;-76
2022/05/06 08:06:53;;;;;;;10.77;9.67;;;;;;;;;;5104475;28;20817;-80
2022/05/06 08:09:20;;;;;;;9.73;8.73;;;;;;;;;;5102337;28;20418;-81
2022/05/06 08:11:46;;;;;;;9.73;8.73;;;;;;;;;;5073545;28;20464;-81
2022/05/06 08:14:13;;;;;;;9.55;8.55;;;;;;;;;;5088796;27;20828;-83
2022/05/06 08:16:40;;;;;;;9.68;8.73;;;;;;;;;;5083152;28;20495;-82
2022/05/06 08:19:06;;;;;;;9.75;8.80;;;;;;;;;;5083978;28;20429;-82
2022/05/06 08:21:32;;;;;;;10.60;8.90;;;;;;;;;;5085069;28;20449;-81
2022/05/06 08:23:58;;;;;;;10.32;9.02;;;;;;;;;;5104491;28;20732;-81
2022/05/06 08:26:24;;;;;;;9.90;8.90;;;;;;;;;;5089323;28;20471;-81
2022/05/06 08:28:50;;;;;;;9.82;8.85;;;;;;;;;;5070872;28;20780;-80
2022/05/06 08:31:16;;;;;;;9.87;8.97;;;;;;;;;;5085193;28;20412;-81
2022/05/06 08:33:42;;;;;;;10.52;9.43;;;;;;;;;;5090119;28;20412;-80
2022/05/06 08:36:09;;;;;;;9.93;8.93;;;;;;;;;;5087711;28;20460;-81
2022/05/06 08:38:35;;;;;;;10.40;9.40;;;;;;;;;;5084742;28;20448;-81
2022/05/06 08:41:01;;;;;;;10.88;9.85;;;;;;;;;;5086550;28;20438;-81
2022/05/06 08:43:27;;;;;;;12.40;10.23;;;;;;;;;;5088160;28;20914;-80
2022/05/06 08:51:28;;;;;;;10.15;9.25;;;;;;;;;;5096747;28;20424;-74
2022/05/06 08:53:54;;;;;;;10.38;9.38;;;;;;;;;;5099623;28;20466;-74
2022/05/06 08:56:20;;;;;;;11.02;9.60;;;;;;;;;;5089368;28;20496;-75
2022/05/06 08:58:46;;;;;;;11.10;10.03;;;;;;;;;;5087290;28;20524;-77
2022/05/06 09:01:13;;;;;;;10.25;9.30;;;;;;;;;;5102335;28;20532;-75
2022/05/06 09:03:48;;;;;;;10.32;9.32;;;;;;;;;;5104329;28;20515;-73
2022/05/06 09:06:20;;;;;;;10.05;9.05;;;;;;;;;;5100525;28;20424;-74
2022/05/06 09:08:47;;;;;;;9.60;8.60;;;;;;;;;;5105594;28;20404;-76
2022/05/06 09:11:13;;;;;;;8.73;7.93;;;;;;;;;;5103008;28;20408;-74
2022/05/06 09:13:51;;;;;;;9.00;8.20;;;;;;;;;;5103932;28;20432;-74
2022/05/06 09:19:12;;;;;;;8.80;8.00;;;;;;;;;;5106674;28;20898;-75
2022/05/06 09:21:39;;;;;;;9.07;8.00;;;;;;;;;;5102100;28;20439;-74
2022/05/06 09:24:20;;;;;;;7.88;7.18;;;;;;;;;;5105397;28;20921;-79
2022/05/06 09:26:59;;;;;;;7.70;6.70;;;;;;;;;;5100679;28;20429;-76
2022/05/06 09:29:29;;;;;;;7.80;7.10;;;;;;;;;;5100873;28;20425;-76
2022/05/06 09:31:56;;;;;;;7.60;6.83;;;;;;;;;;5099808;28;20428;-76
2022/05/06 09:34:28;;;;;;;6.30;5.70;;;;;;;;;;5089449;28;20420;-75
2022/05/06 09:36:55;;;;;;;7.25;6.50;;;;;;;;;;5084207;28;21020;-75
2022/05/06 09:39:22;;;;;;;6.70;6.00;;;;;;;;;;5092511;28;20504;-76
2022/05/06 09:41:48;;;;;;;6.13;5.53;;;;;;;;;;5100327;28;20513;-75
2022/05/06 09:44:15;;;;;;;6.90;5.47;;;;;;;;;;5108412;28;20527;-76
2022/05/06 09:46:41;;;;;;;6.80;6.10;;;;;;;;;;5092367;28;20408;-77
2022/05/06 09:49:08;;;;;;;7.38;6.68;;;;;;;;;;5104224;28;20801;-78
2022/05/06 09:51:34;;;;;;;6.88;6.18;;;;;;;;;;5091088;28;20461;-76
2022/05/06 09:54:01;;;;;;;6.28;5.68;;;;;;;;;;5104338;28;20420;-75
2022/05/06 09:56:28;;;;;;;7.95;5.80;;;;;;;;;;5107039;28;20508;-78
2022/05/06 09:58:55;;;;;;;6.70;5.40;;;;;;;;;;5104576;28;20481;-74
2022/05/06 10:01:21;;;;;;;6.15;5.57;;;;;;;;;;5103457;28;20423;-74
2022/05/06 10:03:47;;;;;;;6.07;5.47;;;;;;;;;;5100292;28;20513;-77
2022/05/06 10:06:14;;;;;;;5.97;4.85;;;;;;;;;;5105581;28;20491;-75
2022/05/06 10:08:49;;;;;;;6.07;5.28;;;;;;;;;;5109965;28;20432;-76
2022/05/06 10:11:19;;;;;;;6.00;4.60;;;;;;;;;;5104029;28;20906;-76
2022/05/06 10:13:46;;;;;;;4.40;4.00;;;;;;;;;;5110201;28;20459;-76
2022/05/06 10:16:13;;;;;;;4.85;3.75;;;;;;;;;;5102057;28;20814;-75
2022/05/06 10:18:43;;;;;;;4.30;3.80;;;;;;;;;;5102443;28;20488;-75
2022/05/06 10:21:13;;;;;;;4.90;4.40;;;;;;;;;;5109544;28;20504;-76
2022/05/06 10:23:48;;;;;;;4.72;3.72;;;;;;;;;;5110263;28;20463;-76
2022/05/06 10:26:33;;;;;;;2.60;2.28;;;;;;;;;;5092573;28;20962;-76
2022/05/06 10:34:35;;;;;;;4.90;2.80;;;;;;;;;;5107978;28;20425;-76
2022/05/06 10:37:03;;;;;;;5.00;2.80;;;;;;;;;;5108570;28;20424;-82
2022/05/06 10:39:29;;;;;;;4.17;2.43;;;;;;;;;;5106046;28;20413;-82
2022/05/06 10:42:04;;;;;;;3.00;2.70;;;;;;;;;;5088836;28;20451;-76
2022/05/06 10:44:40;;;;;;;4.53;3.03;;;;;;;;;;5108597;28;20507;-77
2022/05/06 10:47:12;;;;;;;3.63;2.80;;;;;;;;;;5108424;28;20440;-76
2022/05/06 10:49:39;;;;;;;4.80;3.30;;;;;;;;;;5092642;28;20447;-77
2022/05/06 10:52:14;;;;;;;3.75;2.78;;;;;;;;;;5103751;28;20447;-79
2022/05/06 10:54:44;;;;;;;4.10;2.88;;;;;;;;;;5104671;28;20428;-74
2022/05/06 10:57:10;;;;;;;6.13;3.85;;;;;;;;;;5105940;27;20447;-77
2022/05/06 10:59:48;;;;;;;4.97;2.60;;;;;;;;;;5108621;28;20443;-75
2022/05/06 11:02:15;;;;;;;7.20;3.10;;;;;;;;;;5106821;28;20575;-75
2022/05/06 11:04:41;;;;;;;3.50;2.40;;;;;;;;;;5103886;28;20526;-78
2022/05/06 11:07:11;;;;;;;3.63;2.83;;;;;;;;;;5105988;28;20553;-74
2022/05/06 11:09:37;;;;;;;5.88;3.00;;;;;;;;;;5108485;28;20499;-75
2022/05/06 11:12:03;;;;;;;5.50;3.13;;;;;;;;;;5108189;28;20759;-75
2022/05/06 11:14:29;;;;;;;3.88;3.33;;;;;;;;;;5090520;28;20909;-76
2022/05/06 11:17:18;;;;;;;4.17;3.00;;;;;;;;;;5128893;27;20422;-76
2022/05/06 11:19:44;;;;;;;3.60;3.03;;;;;;;;;;5110571;27;20899;-75
2022/05/06 11:22:11;;;;;;;6.30;3.08;;;;;;;;;;5112567;27;20411;-75
2022/05/06 11:24:37;;;;;;;3.40;2.80;;;;;;;;;;5129200;27;20426;-75
2022/05/06 11:27:16;;;;;;;3.77;2.50;;;;;;;;;;5130434;27;20489;-75
2022/05/06 11:29:57;;;;;;;7.40;2.30;;;;;;;;;;5127511;27;20414;-75
2022/05/06 11:32:23;;;;;;;7.93;2.05;;;;;;;;;;5091209;27;20461;-75
2022/05/06 11:34:52;;;;;;;3.10;1.92;;;;;;;;;;5126199;27;20426;-78
2022/05/06 11:37:22;;;;;;;2.28;1.90;;;;;;;;;;5109328;27;20467;-76
2022/05/06 11:39:49;;;;;;;2.95;1.77;;;;;;;;;;5094316;27;20419;-79
2022/05/06 11:42:22;;;;;;;2.75;1.20;;;;;;;;;;5094446;27;20414;-77
2022/05/06 11:48:04;;;;;;;5.55;1.40;;;;;;;;;;5025698;28;20699;-76
2022/05/06 11:50:32;;;;;;;2.60;1.10;;;;;;;;;;5115684;27;20479;-75
2022/05/06 11:53:01;;;;;;;4.07;1.85;;;;;;;;;;5110169;27;20510;-78
2022/05/06 11:55:27;;;;;;;4.25;1.60;;;;;;;;;;5089341;27;20784;-79
2022/05/06 11:57:53;;;;;;;2.97;2.00;;;;;;;;;;5075358;27;21109;-80
2022/05/06 12:00:20;;;;;;;2.88;1.70;;;;;;;;;;5075640;27;20934;-80
2022/05/06 12:02:48;;;;;;;4.82;2.30;;;;;;;;;;5093174;27;20498;-78
2022/05/06 12:05:14;;;;;;;3.42;2.20;;;;;;;;;;5092996;27;20430;-84
2022/05/06 12:07:50;;;;;;;4.60;2.90;;;;;;;;;;5091566;27;20422;-80
2022/05/06 12:10:29;;;;;;;3.67;2.88;;;;;;;;;;5090534;27;20430;-79
2022/05/06 12:12:56;;;;;;;7.63;2.85;;;;;;;;;;5091681;27;20920;-82
2022/05/06 12:15:29;;;;;;;4.10;2.90;;;;;;;;;;5091479;27;20427;-82
2022/05/06 12:18:02;;;;;;;3.20;2.90;;;;;;;;;;5110833;27;20570;-82
2022/05/06 12:20:32;;;;;;;4.68;3.20;;;;;;;;;;5111985;27;20438;-83
2022/05/06 12:22:58;;;;;;;11.57;9.27;;;;;;;;;;5105973;27;20799;-82
2022/05/06 12:25:25;;;;;;;4.35;3.60;;;;;;;;;;5077859;27;20461;-81
2022/05/06 12:28:04;;;;;;;7.22;3.78;;;;;;;;;;5112378;27;20441;-82
2022/05/06 12:30:31;;;;;;;10.77;3.60;;;;;;;;;;5111423;27;20450;-81
2022/05/06 12:33:08;;;;;;;6.80;3.50;;;;;;;;;;5110945;27;20450;-82
2022/05/06 12:35:54;;;;;;;5.75;3.92;;;;;;;;;;5093824;27;20504;-82
2022/05/06 12:38:21;;;;;;;4.80;3.80;;;;;;;;;;5092830;28;20486;-83
2022/05/06 12:40:48;;;;;;;5.80;4.47;;;;;;;;;;5092159;28;20514;-83
2022/05/06 12:43:15;;;;;;;5.40;4.25;;;;;;;;;;5093474;27;20893;-82
2022/05/06 12:45:59;;;;;;;6.82;5.03;;;;;;;;;;5092683;28;20493;-83
2022/05/06 12:51:10;;;;;;;6.95;4.63;;;;;;;;;;5108994;28;20482;-83
2022/05/06 12:53:36;;;;;;;5.30;4.05;;;;;;;;;;5090004;28;20442;-82
2022/05/06 12:56:03;;;;;;;6.35;3.72;;;;;;;;;;5111215;28;20742;-83
2022/05/06 12:58:29;;;;;;;6.63;3.90;;;;;;;;;;5094799;28;20426;-83
2022/05/06 13:00:59;;;;;;;5.97;4.15;;;;;;;;;;5110776;28;20766;-83
2022/05/06 13:03:25;;;;;;;6.30;4.30;;;;;;;;;;5091641;28;20426;-83
2022/05/06 13:05:53;;;;;;;6.60;4.10;;;;;;;;;;5110054;28;20460;-82
2022/05/06 13:08:20;;;;;;;5.15;3.97;;;;;;;;;;5111217;28;20490;-82
2022/05/06 13:10:46;;;;;;;5.50;3.47;;;;;;;;;;5111351;28;20487;-82
2022/05/06 13:13:15;;;;;;;5.07;3.88;;;;;;;;;;5094759;28;20417;-83
2022/05/06 13:15:41;;;;;;;4.20;3.30;;;;;;;;;;5108158;28;20667;-83
2022/05/06 13:18:07;;;;;;;8.18;3.95;;;;;;;;;;5112063;28;20414;-83
2022/05/06 13:20:33;;;;;;;4.97;3.33;;;;;;;;;;5108648;28;20422;-82
2022/05/06 13:22:59;;;;;;;7.75;4.65;;;;;;;;;;5095216;28;20413;-83
2022/05/06 13:25:26;;;;;;;5.60;3.72;;;;;;;;;;5109136;28;20518;-83
2022/05/06 13:27:52;;;;;;;7.53;4.53;;;;;;;;;;5090824;28;20418;-83
2022/05/06 13:30:21;;;;;;;7.97;4.72;;;;;;;;;;5094709;28;20462;-83
2022/05/06 13:32:47;;;;;;;6.97;4.93;;;;;;;;;;5076616;28;20449;-84
2022/05/06 13:35:13;;;;;;;6.82;5.05;;;;;;;;;;5109043;27;20748;-83
2022/05/06 13:37:39;;;;;;;7.22;5.00;;;;;;;;;;5096495;27;20415;-82
2022/05/06 13:40:05;;;;;;;7.75;5.47;;;;;;;;;;5079672;27;20423;-83
2022/05/06 13:42:31;;;;;;;10.37;4.90;;;;;;;;;;5095228;27;20469;-83
2022/05/06 13:44:57;;;;;;;11.70;5.80;;;;;;;;;;5095357;27;20467;-83
2022/05/06 13:47:24;;;;;;;7.93;5.55;;;;;;;;;;5095342;27;20425;-84
2022/05/06 13:49:50;;;;;;;9.88;6.00;;;;;;;;;;5096670;27;20410;-83
2022/05/06 13:52:16;;;;;;;10.10;6.60;;;;;;;;;;5097522;27;20904;-83
2022/05/06 13:54:42;;;;;;;8.83;6.60;;;;;;;;;;5096559;27;20414;-83
2022/05/06 13:59:53;;;;;;;10.18;7.15;;;;;;;;;;5114368;27;20441;-85
2022/05/06 14:02:19;;;;;;;11.38;8.13;;;;;;;;;;5081971;27;20451;-83
2022/05/06 14:04:45;;;;;;;9.63;7.68;;;;;;;;;;5094342;27;20457;-85
2022/05/06 14:07:11;;;;;;;9.05;7.82;;;;;;;;;;5112965;27;20782;-83
2022/05/06 14:09:37;;;;;;;10.17;7.97;;;;;;;;;;5096047;27;20927;-83
2022/05/06 14:12:03;;;;;;;12.25;8.95;;;;;;;;;;5096494;27;20470;-83
2022/05/06 14:14:29;;;;;;;10.67;8.97;;;;;;;;;;5111917;27;20475;-84
2022/05/06 14:16:55;;;;;;;10.85;9.68;;;;;;;;;;5113480;27;20415;-84
2022/05/06 14:19:21;;;;;;;15.13;9.68;;;;;;;;;;5113942;27;20415;-84
2022/05/06 14:21:47;;;;;;;12.80;10.00;;;;;;;;;;5111989;27;20421;-83
2022/05/06 14:24:14;;;;;;;11.40;9.32;;;;;;;;;;5095460;27;20923;-84
2022/05/06 14:26:40;;;;;;;13.50;9.55;;;;;;;;;;5079819;27;20418;-83
2022/05/06 14:29:06;;;;;;;12.23;9.45;;;;;;;;;;5110766;27;20805;-83
2022/05/06 14:31:32;;;;;;;10.85;9.65;;;;;;;;;;5097061;27;20495;-83
2022/05/06 14:33:58;;;;;;;14.73;10.57;;;;;;;;;;5080183;27;20422;-83
2022/05/06 14:36:25;;;;;;;13.98;10.48;;;;;;;;;;5076753;27;22268;-82
2022/05/06 14:38:51;;;;;;;12.85;9.90;;;;;;;;;;5113580;27;20426;-83
2022/05/06 14:41:17;;;;;;;11.35;9.32;;;;;;;;;;5095718;27;20745;-83
2022/05/06 14:43:44;;;;;;;12.85;9.07;;;;;;;;;;5095576;27;20509;-82
2022/05/06 14:46:10;;;;;;;15.60;10.75;;;;;;;;;;5111344;28;20905;-83
2022/05/06 14:48:36;;;;;;;15.63;9.65;;;;;;;;;;5094898;27;20493;-83
2022/05/06 14:51:02;;;;;;;11.65;9.85;;;;;;;;;;5096442;27;20510;-83
2022/05/06 14:53:28;;;;;;;14.15;10.55;;;;;;;;;;5096722;27;20421;-83
2022/05/06 14:55:54;;;;;;;11.95;9.70;;;;;;;;;;5094495;27;20452;-83
2022/05/06 14:58:21;;;;;;;15.45;9.60;;;;;;;;;;5110003;27;20421;-83
2022/05/06 15:00:47;;;;;;;11.85;9.45;;;;;;;;;;5094922;27;20419;-82
2022/05/06 15:03:13;;;;;;;14.02;10.30;;;;;;;;;;5090522;27;20419;-84
2022/05/06 15:05:39;;;;;;;13.15;9.60;;;;;;;;;;5107455;27;20433;-79
2022/05/06 15:08:05;;;;;;;12.65;10.20;;;;;;;;;;5092992;27;20536;-75
2022/05/06 15:10:31;;;;;;;12.75;10.60;;;;;;;;;;5110751;27;20756;-79
2022/05/06 15:12:57;;;;;;;15.80;10.88;;;;;;;;;;5108778;27;20424;-76
2022/05/06 15:15:23;;;;;;;13.52;10.85;;;;;;;;;;5088771;27;20511;-85
2022/05/06 15:17:51;;;;;;;13.38;10.50;;;;;;;;;;5105434;27;21172;-84